createdAt,value
2023-02-13T00:00:13.993Z,7.84
2023-02-13T00:02:40.659Z,7.95
2023-02-13T00:05:07.650Z,7.64
2023-02-13T00:07:34.217Z,7.93
2023-02-13T00:10:00.855Z,7.95
2023-02-13T00:12:27.546Z,7.51
2023-02-13T00:14:54.152Z,7.95
2023-02-13T00:17:20.740Z,7.92
2023-02-13T00:19:47.296Z,8.08
2023-02-13T00:22:16.509Z,7.96
2023-02-13T00:24:43.542Z,7.92
2023-02-13T00:27:12.518Z,7.55
2023-02-13T00:29:39.096Z,8.04
2023-02-13T00:32:05.761Z,8.13
2023-02-13T00:34:33.185Z,8.18
2023-02-13T00:37:01.340Z,7.60
2023-02-13T00:39:29.987Z,8.05
2023-02-13T00:41:56.504Z,7.50
2023-02-13T00:44:23.229Z,7.53
2023-02-13T00:46:49.915Z,7.67
2023-02-13T00:49:17.094Z,8.03
2023-02-13T00:51:43.680Z,8.10
2023-02-13T00:54:10.420Z,8.04
2023-02-13T00:56:37.113Z,7.87
2023-02-13T00:59:05.671Z,7.64
2023-02-13T01:01:32.246Z,8.21
2023-02-13T01:03:59.914Z,8.09
2023-02-13T01:06:27.712Z,7.66
2023-02-13T01:08:54.310Z,7.63
2023-02-13T01:11:21.052Z,8.10
2023-02-13T01:13:47.658Z,8.12
2023-02-13T01:16:15.861Z,8.23
2023-02-13T01:18:42.576Z,8.20
2023-02-13T01:21:16.695Z,8.30
2023-02-13T01:23:43.634Z,8.11
2023-02-13T01:26:17.148Z,7.63
2023-02-13T01:28:44.088Z,8.25
2023-02-13T01:31:12.409Z,8.22
2023-02-13T01:33:39.078Z,7.64
2023-02-13T01:36:11.567Z,8.33
2023-02-13T01:38:38.709Z,8.16
2023-02-13T01:41:05.712Z,7.64
2023-02-13T01:43:46.425Z,8.36
2023-02-13T01:46:17.574Z,8.12
2023-02-13T01:48:45.045Z,8.23
2023-02-13T01:51:18.301Z,7.52
2023-02-13T01:53:55.956Z,8.29
2023-02-13T01:56:37.770Z,8.32
2023-02-13T01:59:11.167Z,8.30
2023-02-13T02:01:38.095Z,8.40
2023-02-13T02:04:10.613Z,7.98
2023-02-13T02:06:42.953Z,8.38
2023-02-13T02:09:18.559Z,8.22
2023-02-13T02:12:10.416Z,8.46
2023-02-13T02:14:40.382Z,8.43
2023-02-13T02:17:09.680Z,8.34
2023-02-13T02:19:49.024Z,8.27
2023-02-13T02:22:46.474Z,8.25
2023-02-13T02:25:22.246Z,8.23
2023-02-13T02:28:20.785Z,8.15
2023-02-13T02:31:05.987Z,8.12
2023-02-13T02:33:51.308Z,8.09
2023-02-13T02:36:44.205Z,8.05
2023-02-13T02:39:35.705Z,8.02
2023-02-13T02:42:29.248Z,7.99
2023-02-13T02:45:17.183Z,7.56
2023-02-13T02:48:26.796Z,8.06
2023-02-13T02:51:19.173Z,8.20
2023-02-13T02:54:02.296Z,7.63
2023-02-13T02:56:40.732Z,7.32
2023-02-13T02:59:31.416Z,8.09
2023-02-13T03:02:20.776Z,8.07
2023-02-13T03:05:12.749Z,8.06
2023-02-13T03:07:39.345Z,8.19
2023-02-13T03:10:28.519Z,8.20
2023-02-13T03:13:20.126Z,7.71
2023-02-13T03:16:07.606Z,7.96
2023-02-13T03:18:57.387Z,8.00
2023-02-13T03:21:56.656Z,8.19
2023-02-13T03:24:41.598Z,7.64
2023-02-13T03:27:45.527Z,8.24
2023-02-13T03:30:34.859Z,8.21
2023-02-13T03:33:22.820Z,8.25
2023-02-13T03:36:28.456Z,8.22
2023-02-13T03:39:12.669Z,7.63
2023-02-13T03:41:58.114Z,8.21
2023-02-13T03:45:08.144Z,7.95
2023-02-13T03:47:36.033Z,8.03
2023-02-13T03:50:06.939Z,8.11
2023-02-13T03:52:55.647Z,7.69
2023-02-13T03:55:46.516Z,8.00
2023-02-13T03:58:36.110Z,8.10
2023-02-13T04:01:06.773Z,8.19
2023-02-13T04:03:45.131Z,8.13
2023-02-13T04:06:16.347Z,8.19
2023-02-13T04:08:43.305Z,8.21
2023-02-13T04:11:15.102Z,8.28
2023-02-13T04:13:57.313Z,8.00
2023-02-13T04:16:46.778Z,8.20
2023-02-13T04:19:14.018Z,7.76
2023-02-13T04:21:40.701Z,8.00
2023-02-13T04:24:08.055Z,8.19
2023-02-13T04:26:41.630Z,7.68
2023-02-13T04:29:08.798Z,8.02
2023-02-13T04:31:36.008Z,7.86
2023-02-13T04:34:03.149Z,8.08
2023-02-13T04:36:29.893Z,7.92
2023-02-13T04:38:56.522Z,8.06
2023-02-13T04:41:23.393Z,7.48
2023-02-13T04:43:52.353Z,7.38
2023-02-13T04:46:19.399Z,8.02
2023-02-13T04:48:46.144Z,7.98
2023-02-13T04:51:12.725Z,7.41
2023-02-13T04:53:39.386Z,7.89
2023-02-13T04:56:06.158Z,7.40
2023-02-13T04:58:32.855Z,7.72
2023-02-13T05:00:59.854Z,7.16
2023-02-13T05:03:26.579Z,7.85
2023-02-13T05:05:53.104Z,7.37
2023-02-13T05:08:19.755Z,7.45
2023-02-13T05:10:46.543Z,7.78
2023-02-13T05:13:14.012Z,7.18
2023-02-13T05:15:40.702Z,7.24
2023-02-13T05:18:07.313Z,7.45
2023-02-13T05:20:33.881Z,6.82
2023-02-13T05:23:19.108Z,7.36
2023-02-13T05:25:45.720Z,7.42
2023-02-13T05:28:30.926Z,6.59
2023-02-13T05:30:58.215Z,7.31
2023-02-13T05:33:25.303Z,7.15
2023-02-13T05:35:51.952Z,7.13
2023-02-13T05:38:18.601Z,6.98
2023-02-13T05:40:45.142Z,6.51
2023-02-13T05:43:11.771Z,6.93
2023-02-13T05:45:38.355Z,6.23
2023-02-13T05:48:05.138Z,6.18
2023-02-13T05:50:31.786Z,6.15
2023-02-13T05:52:58.370Z,6.75
2023-02-13T05:55:24.885Z,6.14
2023-02-13T05:57:56.179Z,6.70
2023-02-13T06:00:22.827Z,6.60
2023-02-13T06:02:49.359Z,6.36
2023-02-13T06:05:16.078Z,5.83
2023-02-13T06:07:42.562Z,5.80
2023-02-13T06:10:09.276Z,6.46
2023-02-13T06:12:35.816Z,6.25
2023-02-13T06:15:02.312Z,6.17
2023-02-13T06:17:28.810Z,5.76
2023-02-13T06:19:55.348Z,5.70
2023-02-13T06:22:21.855Z,5.91
2023-02-13T06:24:48.372Z,5.54
2023-02-13T06:27:14.886Z,5.77
2023-02-13T06:29:41.843Z,5.81
2023-02-13T06:32:08.328Z,5.56
2023-02-13T06:34:34.836Z,5.62
2023-02-13T06:37:01.473Z,5.10
2023-02-13T06:39:28.033Z,5.08
2023-02-13T06:41:54.540Z,5.58
2023-02-13T06:44:21.045Z,5.36
2023-02-13T06:46:47.699Z,5.59
2023-02-13T06:49:14.241Z,5.50
2023-02-13T06:51:40.723Z,5.48
2023-02-13T06:54:07.265Z,5.61
2023-02-13T06:56:33.792Z,5.56
2023-02-13T06:59:00.335Z,5.45
2023-02-13T07:01:27.484Z,5.34
2023-02-13T07:03:54.042Z,5.42
2023-02-13T07:06:21.454Z,5.49
2023-02-13T07:08:48.507Z,5.45
2023-02-13T07:11:19.694Z,5.12
2023-02-13T07:13:46.240Z,5.48
2023-02-13T07:16:12.817Z,5.18
2023-02-13T07:18:39.444Z,5.09
2023-02-13T07:21:06.312Z,5.51
2023-02-13T07:23:33.033Z,5.78
2023-02-13T07:26:00.649Z,4.93
2023-02-13T07:28:27.961Z,5.44
2023-02-13T07:30:56.328Z,5.91
2023-02-13T07:33:24.198Z,5.98
2023-02-13T07:35:51.896Z,5.95
2023-02-13T07:38:19.204Z,6.25
2023-02-13T07:40:46.096Z,6.56
2023-02-13T07:43:15.996Z,6.96
2023-02-13T07:45:42.950Z,7.27
2023-02-13T07:48:09.469Z,7.53
2023-02-13T07:50:35.938Z,7.96
2023-02-13T07:53:03.032Z,8.13
2023-02-13T07:55:30.356Z,8.53
2023-02-13T07:57:57.040Z,8.80
2023-02-13T08:00:23.764Z,9.06
2023-02-13T08:02:50.295Z,8.97
2023-02-13T08:05:16.899Z,9.64
2023-02-13T08:07:43.474Z,9.87
2023-02-13T08:10:31.678Z,9.94
2023-02-13T08:12:58.633Z,10.46
2023-02-13T08:15:25.893Z,10.78
2023-02-13T08:17:52.454Z,10.85
2023-02-13T08:20:19.338Z,10.99
2023-02-13T08:22:45.904Z,11.54
2023-02-13T08:25:12.973Z,11.72
2023-02-13T08:27:39.522Z,11.88
2023-02-13T08:30:06.858Z,12.43
2023-02-13T08:32:44.947Z,12.41
2023-02-13T08:35:19.609Z,12.67
2023-02-13T08:37:47.589Z,12.86
2023-02-13T08:40:14.737Z,12.81
2023-02-13T08:42:41.377Z,12.66
2023-02-13T08:45:10.472Z,13.27
2023-02-13T08:47:38.012Z,13.24
2023-02-13T08:50:05.541Z,13.26
2023-02-13T08:52:32.346Z,13.38
2023-02-13T08:54:58.833Z,13.59
2023-02-13T08:57:25.319Z,13.84
2023-02-13T08:59:51.823Z,14.01
2023-02-13T09:02:18.387Z,14.06
2023-02-13T09:04:44.865Z,14.41
2023-02-13T09:07:11.384Z,14.08
2023-02-13T09:09:38.138Z,14.51
2023-02-13T09:12:04.973Z,14.72
2023-02-13T09:14:31.864Z,14.70
2023-02-13T09:16:58.453Z,14.79
2023-02-13T09:19:24.983Z,14.46
2023-02-13T09:21:51.558Z,15.02
2023-02-13T09:24:18.085Z,14.85
2023-02-13T09:26:44.662Z,14.90
2023-02-13T09:29:11.239Z,15.05
2023-02-13T09:31:37.966Z,14.91
2023-02-13T09:34:04.667Z,15.40
2023-02-13T09:36:31.349Z,15.68
2023-02-13T09:38:58.118Z,15.91
2023-02-13T09:41:31.121Z,15.52
2023-02-13T09:44:07.163Z,16.01
2023-02-13T09:46:41.789Z,15.69
2023-02-13T09:49:13.836Z,16.11
2023-02-13T09:51:42.742Z,16.37
2023-02-13T09:54:15.543Z,16.60
2023-02-13T09:56:55.105Z,16.96
2023-02-13T09:59:45.827Z,17.23
2023-02-13T10:02:36.714Z,17.28
2023-02-13T10:05:21.849Z,16.96
2023-02-13T10:08:13.607Z,17.70
2023-02-13T10:10:53.835Z,17.98
2023-02-13T10:13:57.877Z,18.07
2023-02-13T10:16:35.278Z,17.95
2023-02-13T10:19:36.513Z,18.33
2023-02-13T10:22:49.652Z,18.05
2023-02-13T10:25:22.326Z,18.35
2023-02-13T10:28:00.722Z,18.20
2023-02-13T10:30:33.751Z,18.50
2023-02-13T10:33:19.494Z,18.66
2023-02-13T10:36:10.499Z,19.44
2023-02-13T10:38:44.627Z,19.00
2023-02-13T10:41:25.025Z,19.10
2023-02-13T10:44:08.028Z,18.70
2023-02-13T10:46:51.490Z,18.62
2023-02-13T10:49:29.681Z,18.83
2023-02-13T10:52:04.218Z,19.09
2023-02-13T10:54:55.490Z,20.13
2023-02-13T10:57:36.344Z,19.46
2023-02-13T11:00:36.087Z,19.09
2023-02-13T11:03:05.156Z,20.11
2023-02-13T11:05:36.992Z,19.87
2023-02-13T11:08:04.182Z,19.85
2023-02-13T11:10:30.785Z,20.21
2023-02-13T11:13:14.594Z,20.76
2023-02-13T11:15:41.281Z,21.29
2023-02-13T11:18:20.694Z,21.36
2023-02-13T11:20:48.094Z,20.44
2023-02-13T11:23:20.780Z,20.80
2023-02-13T11:26:03.495Z,20.49
2023-02-13T11:28:31.864Z,20.64
2023-02-13T11:31:11.386Z,21.21
2023-02-13T11:33:38.201Z,21.42
2023-02-13T11:36:09.676Z,22.07
2023-02-13T11:38:36.452Z,22.34
2023-02-13T11:41:12.797Z,22.05
2023-02-13T11:43:53.415Z,22.27
2023-02-13T11:46:26.543Z,21.33
2023-02-13T11:49:06.574Z,21.48
2023-02-13T11:51:35.863Z,22.35
2023-02-13T11:54:03.280Z,22.29
2023-02-13T11:57:03.117Z,22.54
2023-02-13T11:59:42.632Z,22.15
2023-02-13T12:02:20.908Z,21.53
2023-02-13T12:04:51.081Z,22.05
2023-02-13T12:07:28.317Z,23.07
2023-02-13T12:10:14.948Z,22.86
2023-02-13T12:12:47.315Z,23.25
2023-02-13T12:15:20.905Z,22.98
2023-02-13T12:17:56.954Z,23.54
2023-02-13T12:20:25.703Z,22.65
2023-02-13T12:23:27.683Z,22.99
2023-02-13T12:26:08.931Z,24.29
2023-02-13T12:28:56.600Z,24.60
2023-02-13T12:31:29.001Z,24.23
2023-02-13T12:34:07.668Z,23.40
2023-02-13T12:36:52.342Z,23.12
2023-02-13T12:39:34.707Z,23.56
2023-02-13T12:42:38.720Z,21.11
2023-02-13T12:45:36.089Z,19.08
2023-02-13T12:48:26.474Z,19.08
2023-02-13T12:50:57.263Z,20.99
2023-02-13T12:53:32.021Z,21.79
2023-02-13T12:56:14.300Z,21.23
2023-02-13T12:59:03.788Z,21.95
2023-02-13T13:02:07.659Z,23.05
2023-02-13T13:04:49.891Z,22.57
2023-02-13T13:07:19.335Z,22.40
2023-02-13T13:10:23.613Z,21.90
2023-02-13T13:13:06.024Z,22.10
2023-02-13T13:15:44.411Z,22.36
2023-02-13T13:18:26.166Z,22.60
2023-02-13T13:20:59.179Z,22.40
2023-02-13T13:23:34.285Z,21.56
2023-02-13T13:26:31.982Z,21.85
2023-02-13T13:29:01.517Z,22.03
2023-02-13T13:31:28.732Z,21.55
2023-02-13T13:34:01.847Z,22.24
2023-02-13T13:37:02.121Z,21.98
2023-02-13T13:39:49.487Z,20.97
2023-02-13T13:42:40.722Z,21.99
2023-02-13T13:45:31.141Z,21.65
2023-02-13T13:48:24.203Z,21.21
2023-02-13T13:50:51.857Z,20.73
2023-02-13T13:53:23.230Z,20.06
2023-02-13T13:55:49.816Z,19.79
2023-02-13T13:58:45.507Z,18.96
2023-02-13T14:01:22.177Z,17.85
2023-02-13T14:04:05.867Z,16.72
2023-02-13T14:06:44.508Z,17.32
2023-02-13T14:09:43.890Z,17.09
2023-02-13T14:12:25.473Z,17.08
2023-02-13T14:14:53.539Z,16.68
2023-02-13T14:17:44.726Z,16.82
2023-02-13T14:20:38.036Z,16.69
2023-02-13T14:23:30.690Z,16.13
2023-02-13T14:26:15.226Z,16.49
2023-02-13T14:28:50.880Z,16.76
2023-02-13T14:31:28.593Z,16.26
2023-02-13T14:34:11.903Z,16.42
2023-02-13T14:36:42.142Z,17.43
2023-02-13T14:39:08.626Z,18.20
2023-02-13T14:41:44.355Z,17.75
2023-02-13T14:44:19.628Z,17.35
2023-02-13T14:46:49.073Z,17.79
2023-02-13T14:49:29.974Z,18.21
2023-02-13T14:51:59.632Z,18.60
2023-02-13T14:54:28.812Z,19.53
2023-02-13T14:57:06.180Z,19.74
2023-02-13T14:59:37.233Z,20.29
2023-02-13T15:02:37.880Z,19.92
2023-02-13T15:05:08.090Z,19.01
2023-02-13T15:07:37.817Z,18.10
2023-02-13T15:10:34.348Z,17.26
2023-02-13T15:13:02.324Z,16.78
2023-02-13T15:15:33.817Z,16.59
2023-02-13T15:18:03.826Z,15.97
2023-02-13T15:20:34.274Z,16.09
2023-02-13T15:23:01.417Z,15.39
2023-02-13T15:25:38.001Z,15.19
2023-02-13T15:28:18.456Z,14.50
2023-02-13T15:30:55.801Z,14.88
2023-02-13T15:33:24.788Z,14.65
2023-02-13T15:35:56.482Z,14.29
2023-02-13T15:38:36.370Z,13.91
2023-02-13T15:41:06.419Z,13.48
2023-02-13T15:43:36.563Z,13.18
2023-02-13T15:46:06.779Z,12.85
2023-02-13T15:48:35.545Z,12.79
2023-02-13T15:51:03.243Z,13.21
2023-02-13T15:53:30.387Z,13.19
2023-02-13T15:56:03.344Z,12.69
2023-02-13T15:58:32.903Z,12.96
2023-02-13T16:01:06.843Z,13.74
2023-02-13T16:03:35.475Z,13.59
2023-02-13T16:06:05.000Z,13.83
2023-02-13T16:08:38.336Z,13.53
2023-02-13T16:11:17.153Z,12.95
2023-02-13T16:14:14.323Z,12.43
2023-02-13T16:16:46.989Z,12.18
2023-02-13T16:19:22.016Z,12.00
2023-02-13T16:21:49.776Z,11.35
2023-02-13T16:24:17.335Z,11.45
2023-02-13T16:26:44.801Z,11.48
2023-02-13T16:29:20.507Z,10.78
2023-02-13T16:31:49.258Z,10.65
2023-02-13T16:34:29.153Z,10.95
2023-02-13T16:36:57.043Z,10.78
2023-02-13T16:39:30.064Z,10.50
2023-02-13T16:41:58.399Z,10.38
2023-02-13T16:44:30.746Z,9.63
2023-02-13T16:47:05.577Z,9.77
2023-02-13T16:49:34.615Z,9.74
2023-02-13T16:52:17.914Z,9.55
2023-02-13T16:54:44.458Z,9.45
2023-02-13T16:57:14.053Z,9.30
2023-02-13T16:59:46.729Z,9.13
2023-02-13T17:02:13.222Z,8.96
2023-02-13T17:04:41.872Z,8.66
2023-02-13T17:07:16.884Z,8.34
2023-02-13T17:09:43.540Z,7.86
2023-02-13T17:12:18.429Z,8.30
2023-02-13T17:14:46.267Z,8.09
2023-02-13T17:17:19.483Z,8.01
2023-02-13T17:19:46.608Z,7.68
2023-02-13T17:22:22.445Z,7.12
2023-02-13T17:24:49.072Z,7.43
2023-02-13T17:27:15.668Z,7.27
2023-02-13T17:29:42.258Z,7.19
2023-02-13T17:32:15.674Z,7.14
2023-02-13T17:34:42.309Z,7.02
2023-02-13T17:37:20.961Z,6.56
2023-02-13T17:39:49.097Z,6.90
2023-02-13T17:42:19.261Z,6.41
2023-02-13T17:44:45.847Z,6.64
2023-02-13T17:47:12.889Z,6.23
2023-02-13T17:49:39.530Z,6.34
2023-02-13T17:52:06.325Z,6.68
2023-02-13T17:54:36.019Z,6.08
2023-02-13T17:57:02.753Z,6.61
2023-02-13T17:59:29.255Z,6.15
2023-02-13T18:01:55.849Z,6.19
2023-02-13T18:04:22.561Z,6.65
2023-02-13T18:06:53.018Z,6.61
2023-02-13T18:09:20.486Z,6.11
2023-02-13T18:12:00.121Z,6.20
2023-02-13T18:14:32.331Z,5.94
2023-02-13T18:16:59.017Z,6.20
2023-02-13T18:19:26.446Z,5.81
2023-02-13T18:21:53.062Z,6.28
2023-02-13T18:24:19.766Z,6.15
2023-02-13T18:26:46.441Z,5.50
2023-02-13T18:29:13.193Z,6.14
2023-02-13T18:31:39.838Z,5.56
2023-02-13T18:34:06.401Z,6.09
2023-02-13T18:36:33.137Z,5.52
2023-02-13T18:38:59.687Z,5.50
2023-02-13T18:41:26.277Z,5.99
2023-02-13T18:43:55.382Z,6.16
2023-02-13T18:46:27.465Z,5.56
2023-02-13T18:48:53.971Z,6.05
2023-02-13T18:51:20.560Z,6.00
2023-02-13T18:53:47.428Z,5.47
2023-02-13T18:56:14.289Z,5.91
2023-02-13T18:58:41.276Z,5.27
2023-02-13T19:01:10.998Z,5.18
2023-02-13T19:03:38.915Z,5.30
2023-02-13T19:06:12.663Z,5.75
2023-02-13T19:08:39.558Z,5.59
2023-02-13T19:11:07.859Z,5.55
2023-02-13T19:13:34.576Z,5.41
2023-02-13T19:16:05.589Z,5.56
2023-02-13T19:18:32.259Z,4.89
2023-02-13T19:21:00.531Z,5.31
2023-02-13T19:23:27.137Z,5.23
2023-02-13T19:25:54.164Z,5.26
2023-02-13T19:28:20.969Z,4.68
2023-02-13T19:30:47.776Z,5.28
2023-02-13T19:33:14.410Z,5.13
2023-02-13T19:35:41.077Z,5.03
2023-02-13T19:38:07.785Z,5.00
2023-02-13T19:40:35.310Z,4.47
2023-02-13T19:43:01.935Z,5.02
2023-02-13T19:45:28.443Z,4.48
2023-02-13T19:47:56.189Z,4.44
2023-02-13T19:50:22.798Z,4.77
2023-02-13T19:52:50.820Z,4.27
2023-02-13T19:55:17.357Z,4.69
2023-02-13T19:57:43.887Z,4.56
2023-02-13T20:00:11.248Z,4.49
2023-02-13T20:02:40.884Z,4.54
2023-02-13T20:05:09.048Z,4.40
2023-02-13T20:07:35.583Z,4.22
2023-02-13T20:10:02.149Z,3.81
2023-02-13T20:12:28.768Z,4.24
2023-02-13T20:14:55.615Z,4.05
2023-02-13T20:17:22.793Z,4.32
2023-02-13T20:19:51.516Z,4.33
2023-02-13T20:22:19.109Z,4.02
2023-02-13T20:24:47.127Z,4.10
2023-02-13T20:27:14.542Z,4.09
2023-02-13T20:29:41.896Z,3.45
2023-02-13T20:32:08.944Z,4.09
2023-02-13T20:34:44.326Z,3.93
2023-02-13T20:37:22.155Z,3.35
2023-02-13T20:39:48.760Z,3.83
2023-02-13T20:42:15.283Z,3.62
2023-02-13T20:44:44.038Z,3.78
2023-02-13T20:47:10.651Z,3.28
2023-02-13T20:49:37.219Z,3.97
2023-02-13T20:52:05.503Z,3.69
2023-02-13T20:54:32.222Z,3.91
2023-02-13T20:56:58.839Z,3.71
2023-02-13T20:59:25.372Z,3.41
2023-02-13T21:01:51.876Z,3.77
2023-02-13T21:04:20.009Z,3.30
2023-02-13T21:06:47.681Z,4.03
2023-02-13T21:09:14.911Z,3.41
2023-02-13T21:11:43.786Z,3.88
2023-02-13T21:14:12.178Z,4.14
2023-02-13T21:16:40.722Z,3.89
2023-02-13T21:19:14.850Z,4.21
2023-02-13T21:21:44.084Z,4.16
2023-02-13T21:24:15.522Z,3.68
2023-02-13T21:26:43.045Z,3.75
2023-02-13T21:29:09.775Z,4.35
2023-02-13T21:31:40.341Z,4.20
2023-02-13T21:34:09.875Z,4.01
2023-02-13T21:36:37.529Z,4.54
2023-02-13T21:39:05.804Z,3.96
2023-02-13T21:41:32.474Z,4.57
2023-02-13T21:43:59.099Z,4.06
2023-02-13T21:46:28.625Z,4.50
2023-02-13T21:49:00.547Z,4.05
2023-02-13T21:51:29.014Z,4.18
2023-02-13T21:53:55.893Z,4.12
2023-02-13T21:56:28.136Z,4.37
2023-02-13T21:58:56.025Z,4.81
2023-02-13T22:01:32.989Z,4.95
2023-02-13T22:04:03.010Z,4.95
2023-02-13T22:06:32.937Z,4.92
2023-02-13T22:09:03.596Z,4.89
2023-02-13T22:11:30.830Z,4.19
2023-02-13T22:14:01.611Z,4.24
2023-02-13T22:16:32.865Z,4.68
2023-02-13T22:19:00.141Z,4.70
2023-02-13T22:21:29.254Z,4.14
2023-02-13T22:23:57.157Z,4.49
2023-02-13T22:26:31.166Z,4.73
2023-02-13T22:29:12.219Z,4.21
2023-02-13T22:31:39.319Z,4.41
2023-02-13T22:34:06.730Z,4.00
2023-02-13T22:36:34.894Z,4.61
2023-02-13T22:39:01.602Z,4.56
2023-02-13T22:41:28.633Z,4.55
2023-02-13T22:43:55.374Z,4.45
2023-02-13T22:46:30.706Z,4.83
2023-02-13T22:48:59.005Z,4.74
2023-02-13T22:51:29.135Z,4.90
2023-02-13T22:53:57.154Z,4.44
2023-02-13T22:56:25.410Z,4.43
2023-02-13T22:58:52.134Z,4.85
2023-02-13T23:01:20.954Z,4.85
2023-02-13T23:03:47.709Z,4.57
2023-02-13T23:06:15.421Z,4.53
2023-02-13T23:08:43.044Z,4.94
2023-02-13T23:11:34.708Z,5.06
2023-02-13T23:14:01.462Z,4.86
2023-02-13T23:16:49.313Z,4.76
2023-02-13T23:19:16.235Z,5.50
2023-02-13T23:21:42.861Z,4.98
2023-02-13T23:24:09.465Z,5.48
2023-02-13T23:26:36.134Z,4.79
2023-02-13T23:29:03.160Z,4.96
2023-02-13T23:31:29.816Z,4.88
2023-02-13T23:33:56.492Z,4.85
2023-02-13T23:36:23.000Z,5.19
2023-02-13T23:38:49.534Z,5.15
2023-02-13T23:41:16.064Z,5.38
2023-02-13T23:43:42.621Z,5.17
2023-02-13T23:46:09.226Z,5.26
2023-02-13T23:48:35.997Z,5.31
2023-02-13T23:51:02.648Z,5.31
2023-02-13T23:53:29.471Z,4.84
2023-02-13T23:55:56.030Z,5.34
2023-02-13T23:58:22.612Z,4.74
